sensor_id;sensor_type;location;lat;lon;timestamp;P1;durP1;ratioP1;P2;durP2;ratioP2
30892;SDS011;17595;50.884;4.346;2023-04-15T00:00:29;8.00;;;3.50;;
30892;SDS011;17595;50.884;4.346;2023-04-15T00:02:55;6.60;;;3.40;;
30892;SDS011;17595;50.884;4.346;2023-04-15T00:05:21;5.55;;;2.92;;
30892;SDS011;17595;50.884;4.346;2023-04-15T00:07:46;4.53;;;3.38;;
30892;SDS011;17595;50.884;4.346;2023-04-15T00:10:12;5.20;;;3.55;;
30892;SDS011;17595;50.884;4.346;2023-04-15T00:12:38;5.35;;;3.80;;
30892;SDS011;17595;50.884;4.346;2023-04-15T00:15:05;5.63;;;3.58;;
30892;SDS011;17595;50.884;4.346;2023-04-15T00:17:32;5.55;;;3.53;;
30892;SDS011;17595;50.884;4.346;2023-04-15T00:19:58;4.32;;;3.50;;
30892;SDS011;17595;50.884;4.346;2023-04-15T00:22:24;5.85;;;3.63;;
30892;SDS011;17595;50.884;4.346;2023-04-15T00:24:51;6.32;;;4.05;;
30892;SDS011;17595;50.884;4.346;2023-04-15T00:27:17;7.53;;;3.88;;
30892;SDS011;17595;50.884;4.346;2023-04-15T00:29:43;6.30;;;3.50;;
30892;SDS011;17595;50.884;4.346;2023-04-15T00:32:09;5.60;;;4.32;;
30892;SDS011;17595;50.884;4.346;2023-04-15T00:34:34;3.95;;;3.55;;
30892;SDS011;17595;50.884;4.346;2023-04-15T00:37:00;4.68;;;4.00;;
30892;SDS011;17595;50.884;4.346;2023-04-15T00:39:26;6.22;;;4.32;;
30892;SDS011;17595;50.884;4.346;2023-04-15T00:41:52;5.65;;;3.90;;
30892;SDS011;17595;50.884;4.346;2023-04-15T00:44:18;7.90;;;3.72;;
30892;SDS011;17595;50.884;4.346;2023-04-15T00:46:44;4.22;;;3.10;;
30892;SDS011;17595;50.884;4.346;2023-04-15T00:49:10;3.97;;;3.28;;
30892;SDS011;17595;50.884;4.346;2023-04-15T00:51:37;5.32;;;3.33;;
30892;SDS011;17595;50.884;4.346;2023-04-15T00:54:03;4.63;;;2.80;;
30892;SDS011;17595;50.884;4.346;2023-04-15T00:56:29;5.85;;;2.85;;
30892;SDS011;17595;50.884;4.346;2023-04-15T00:58:57;5.03;;;2.60;;
30892;SDS011;17595;50.884;4.346;2023-04-15T01:01:24;5.03;;;2.50;;
30892;SDS011;17595;50.884;4.346;2023-04-15T01:03:50;5.82;;;2.92;;
30892;SDS011;17595;50.884;4.346;2023-04-15T01:06:16;5.10;;;2.80;;
30892;SDS011;17595;50.884;4.346;2023-04-15T01:08:43;5.53;;;2.72;;
30892;SDS011;17595;50.884;4.346;2023-04-15T01:13:37;6.35;;;2.85;;
30892;SDS011;17595;50.884;4.346;2023-04-15T01:16:04;5.45;;;2.47;;
30892;SDS011;17595;50.884;4.346;2023-04-15T01:18:30;5.55;;;2.92;;
30892;SDS011;17595;50.884;4.346;2023-04-15T01:20:56;3.58;;;2.95;;
30892;SDS011;17595;50.884;4.346;2023-04-15T01:23:22;3.75;;;2.45;;
30892;SDS011;17595;50.884;4.346;2023-04-15T01:25:48;2.60;;;2.00;;
30892;SDS011;17595;50.884;4.346;2023-04-15T01:28:14;2.72;;;2.33;;
30892;SDS011;17595;50.884;4.346;2023-04-15T01:30:41;4.10;;;2.30;;
30892;SDS011;17595;50.884;4.346;2023-04-15T01:33:07;4.25;;;2.30;;
30892;SDS011;17595;50.884;4.346;2023-04-15T01:35:33;3.17;;;2.38;;
30892;SDS011;17595;50.884;4.346;2023-04-15T01:38:01;4.20;;;2.45;;
30892;SDS011;17595;50.884;4.346;2023-04-15T01:40:32;3.47;;;2.35;;
30892;SDS011;17595;50.884;4.346;2023-04-15T01:42:59;4.38;;;3.05;;
30892;SDS011;17595;50.884;4.346;2023-04-15T01:45:26;6.60;;;3.58;;
30892;SDS011;17595;50.884;4.346;2023-04-15T01:47:52;6.25;;;2.95;;
30892;SDS011;17595;50.884;4.346;2023-04-15T01:50:18;7.93;;;3.80;;
30892;SDS011;17595;50.884;4.346;2023-04-15T01:52:44;6.57;;;4.10;;
30892;SDS011;17595;50.884;4.346;2023-04-15T01:55:11;7.28;;;4.28;;
30892;SDS011;17595;50.884;4.346;2023-04-15T01:57:37;8.20;;;4.57;;
30892;SDS011;17595;50.884;4.346;2023-04-15T02:00:03;11.45;;;5.32;;
30892;SDS011;17595;50.884;4.346;2023-04-15T02:02:29;16.92;;;7.32;;
30892;SDS011;17595;50.884;4.346;2023-04-15T02:04:55;18.20;;;8.70;;
30892;SDS011;17595;50.884;4.346;2023-04-15T02:07:20;17.67;;;8.00;;
30892;SDS011;17595;50.884;4.346;2023-04-15T02:09:46;22.98;;;9.40;;
30892;SDS011;17595;50.884;4.346;2023-04-15T02:12:12;20.08;;;8.60;;
30892;SDS011;17595;50.884;4.346;2023-04-15T02:14:37;19.95;;;8.95;;
30892;SDS011;17595;50.884;4.346;2023-04-15T02:17:03;20.52;;;9.70;;
30892;SDS011;17595;50.884;4.346;2023-04-15T02:19:31;23.92;;;11.48;;
30892;SDS011;17595;50.884;4.346;2023-04-15T02:21:58;29.13;;;13.02;;
30892;SDS011;17595;50.884;4.346;2023-04-15T02:24:24;30.30;;;12.27;;
30892;SDS011;17595;50.884;4.346;2023-04-15T02:26:50;26.38;;;12.55;;
30892;SDS011;17595;50.884;4.346;2023-04-15T02:29:16;31.38;;;12.77;;
30892;SDS011;17595;50.884;4.346;2023-04-15T02:31:42;28.33;;;13.13;;
30892;SDS011;17595;50.884;4.346;2023-04-15T02:34:09;28.17;;;13.02;;
30892;SDS011;17595;50.884;4.346;2023-04-15T02:36:34;33.67;;;12.65;;
30892;SDS011;17595;50.884;4.346;2023-04-15T02:39:00;27.98;;;12.77;;
30892;SDS011;17595;50.884;4.346;2023-04-15T02:41:28;30.65;;;14.23;;
30892;SDS011;17595;50.884;4.346;2023-04-15T02:43:54;32.35;;;15.35;;
30892;SDS011;17595;50.884;4.346;2023-04-15T02:46:20;35.13;;;14.65;;
30892;SDS011;17595;50.884;4.346;2023-04-15T02:48:47;32.85;;;15.25;;
30892;SDS011;17595;50.884;4.346;2023-04-15T02:51:14;34.30;;;15.73;;
30892;SDS011;17595;50.884;4.346;2023-04-15T02:53:41;33.70;;;15.15;;
30892;SDS011;17595;50.884;4.346;2023-04-15T02:56:07;35.58;;;16.35;;
30892;SDS011;17595;50.884;4.346;2023-04-15T02:58:33;35.10;;;15.80;;
30892;SDS011;17595;50.884;4.346;2023-04-15T03:01:00;29.25;;;15.88;;
30892;SDS011;17595;50.884;4.346;2023-04-15T03:03:26;30.35;;;15.00;;
30892;SDS011;17595;50.884;4.346;2023-04-15T03:05:53;31.00;;;15.07;;
30892;SDS011;17595;50.884;4.346;2023-04-15T03:08:19;27.92;;;13.55;;
30892;SDS011;17595;50.884;4.346;2023-04-15T03:10:47;32.20;;;16.38;;
30892;SDS011;17595;50.884;4.346;2023-04-15T03:13:13;34.92;;;15.93;;
30892;SDS011;17595;50.884;4.346;2023-04-15T03:15:38;35.40;;;16.60;;
30892;SDS011;17595;50.884;4.346;2023-04-15T03:18:04;32.08;;;15.13;;
30892;SDS011;17595;50.884;4.346;2023-04-15T03:20:30;31.65;;;15.18;;
30892;SDS011;17595;50.884;4.346;2023-04-15T03:22:56;28.85;;;14.25;;
30892;SDS011;17595;50.884;4.346;2023-04-15T03:25:21;25.27;;;13.45;;
30892;SDS011;17595;50.884;4.346;2023-04-15T03:27:47;23.70;;;12.43;;
30892;SDS011;17595;50.884;4.346;2023-04-15T03:30:12;24.58;;;12.38;;
30892;SDS011;17595;50.884;4.346;2023-04-15T03:32:38;22.27;;;11.75;;
30892;SDS011;17595;50.884;4.346;2023-04-15T03:35:04;23.33;;;11.05;;
30892;SDS011;17595;50.884;4.346;2023-04-15T03:37:30;22.42;;;11.65;;
30892;SDS011;17595;50.884;4.346;2023-04-15T03:39:56;16.98;;;10.25;;
30892;SDS011;17595;50.884;4.346;2023-04-15T03:42:21;18.65;;;10.55;;
30892;SDS011;17595;50.884;4.346;2023-04-15T03:44:47;19.15;;;10.23;;
30892;SDS011;17595;50.884;4.346;2023-04-15T03:47:13;17.15;;;9.38;;
30892;SDS011;17595;50.884;4.346;2023-04-15T03:49:38;17.20;;;10.48;;
30892;SDS011;17595;50.884;4.346;2023-04-15T03:52:04;17.58;;;9.63;;
30892;SDS011;17595;50.884;4.346;2023-04-15T03:54:30;13.13;;;8.43;;
30892;SDS011;17595;50.884;4.346;2023-04-15T03:56:55;14.98;;;8.60;;
30892;SDS011;17595;50.884;4.346;2023-04-15T03:59:21;12.38;;;8.95;;
30892;SDS011;17595;50.884;4.346;2023-04-15T04:01:47;14.60;;;9.57;;
30892;SDS011;17595;50.884;4.346;2023-04-15T04:04:12;16.42;;;10.30;;
30892;SDS011;17595;50.884;4.346;2023-04-15T04:06:38;13.07;;;9.43;;
30892;SDS011;17595;50.884;4.346;2023-04-15T04:09:04;12.43;;;9.10;;
30892;SDS011;17595;50.884;4.346;2023-04-15T04:11:29;15.50;;;8.95;;
30892;SDS011;17595;50.884;4.346;2023-04-15T04:13:55;14.10;;;9.68;;
30892;SDS011;17595;50.884;4.346;2023-04-15T04:16:21;14.30;;;8.95;;
30892;SDS011;17595;50.884;4.346;2023-04-15T04:18:47;16.02;;;9.05;;
30892;SDS011;17595;50.884;4.346;2023-04-15T04:21:12;13.93;;;9.73;;
30892;SDS011;17595;50.884;4.346;2023-04-15T04:23:38;17.80;;;10.63;;
30892;SDS011;17595;50.884;4.346;2023-04-15T04:26:03;15.93;;;10.43;;
30892;SDS011;17595;50.884;4.346;2023-04-15T04:28:29;18.73;;;10.45;;
30892;SDS011;17595;50.884;4.346;2023-04-15T04:30:55;18.13;;;10.30;;
30892;SDS011;17595;50.884;4.346;2023-04-15T04:33:21;15.93;;;10.40;;
30892;SDS011;17595;50.884;4.346;2023-04-15T04:35:46;16.13;;;8.88;;
30892;SDS011;17595;50.884;4.346;2023-04-15T04:38:12;16.67;;;9.50;;
30892;SDS011;17595;50.884;4.346;2023-04-15T04:40:38;13.55;;;9.48;;
30892;SDS011;17595;50.884;4.346;2023-04-15T04:43:03;14.77;;;10.00;;
30892;SDS011;17595;50.884;4.346;2023-04-15T04:45:29;16.45;;;10.05;;
30892;SDS011;17595;50.884;4.346;2023-04-15T04:47:54;14.43;;;9.77;;
30892;SDS011;17595;50.884;4.346;2023-04-15T04:50:20;15.85;;;10.85;;
30892;SDS011;17595;50.884;4.346;2023-04-15T04:52:46;15.63;;;10.00;;
30892;SDS011;17595;50.884;4.346;2023-04-15T04:55:11;17.98;;;10.13;;
30892;SDS011;17595;50.884;4.346;2023-04-15T04:57:37;13.80;;;10.25;;
30892;SDS011;17595;50.884;4.346;2023-04-15T05:00:06;15.40;;;9.30;;
30892;SDS011;17595;50.884;4.346;2023-04-15T05:02:33;18.15;;;8.57;;
30892;SDS011;17595;50.884;4.346;2023-04-15T05:04:59;16.17;;;8.93;;
30892;SDS011;17595;50.884;4.346;2023-04-15T05:07:25;14.25;;;9.00;;
30892;SDS011;17595;50.884;4.346;2023-04-15T05:09:51;15.35;;;10.13;;
30892;SDS011;17595;50.884;4.346;2023-04-15T05:12:17;17.73;;;10.05;;
30892;SDS011;17595;50.884;4.346;2023-04-15T05:14:42;12.23;;;9.10;;
30892;SDS011;17595;50.884;4.346;2023-04-15T05:17:08;17.73;;;9.43;;
30892;SDS011;17595;50.884;4.346;2023-04-15T05:19:35;12.10;;;8.95;;
30892;SDS011;17595;50.884;4.346;2023-04-15T05:22:00;11.50;;;7.32;;
30892;SDS011;17595;50.884;4.346;2023-04-15T05:24:26;12.57;;;7.95;;
30892;SDS011;17595;50.884;4.346;2023-04-15T05:26:52;17.02;;;7.65;;
30892;SDS011;17595;50.884;4.346;2023-04-15T05:29:17;11.25;;;7.88;;
30892;SDS011;17595;50.884;4.346;2023-04-15T05:31:43;14.38;;;8.23;;
30892;SDS011;17595;50.884;4.346;2023-04-15T05:34:08;17.15;;;8.65;;
30892;SDS011;17595;50.884;4.346;2023-04-15T05:36:35;13.32;;;7.60;;
30892;SDS011;17595;50.884;4.346;2023-04-15T05:39:01;11.57;;;7.80;;
30892;SDS011;17595;50.884;4.346;2023-04-15T05:41:28;11.90;;;7.38;;
30892;SDS011;17595;50.884;4.346;2023-04-15T05:43:53;18.88;;;8.23;;
30892;SDS011;17595;50.884;4.346;2023-04-15T05:46:20;11.25;;;7.80;;
30892;SDS011;17595;50.884;4.346;2023-04-15T05:48:46;14.75;;;7.43;;
30892;SDS011;17595;50.884;4.346;2023-04-15T05:51:12;12.13;;;7.90;;
30892;SDS011;17595;50.884;4.346;2023-04-15T05:53:37;12.32;;;6.93;;
30892;SDS011;17595;50.884;4.346;2023-04-15T05:56:05;11.50;;;7.13;;
30892;SDS011;17595;50.884;4.346;2023-04-15T05:58:31;11.90;;;6.93;;
30892;SDS011;17595;50.884;4.346;2023-04-15T06:00:56;15.98;;;7.00;;
30892;SDS011;17595;50.884;4.346;2023-04-15T06:03:22;11.55;;;7.50;;
30892;SDS011;17595;50.884;4.346;2023-04-15T06:05:48;12.57;;;7.03;;
30892;SDS011;17595;50.884;4.346;2023-04-15T06:08:13;11.82;;;7.15;;
30892;SDS011;17595;50.884;4.346;2023-04-15T06:10:39;14.48;;;7.15;;
30892;SDS011;17595;50.884;4.346;2023-04-15T06:13:05;19.92;;;7.60;;
30892;SDS011;17595;50.884;4.346;2023-04-15T06:15:32;12.30;;;6.97;;
30892;SDS011;17595;50.884;4.346;2023-04-15T06:17:57;8.82;;;6.88;;
30892;SDS011;17595;50.884;4.346;2023-04-15T06:20:23;9.40;;;6.20;;
30892;SDS011;17595;50.884;4.346;2023-04-15T06:22:49;11.20;;;6.57;;
30892;SDS011;17595;50.884;4.346;2023-04-15T06:25:15;16.00;;;7.35;;
30892;SDS011;17595;50.884;4.346;2023-04-15T06:27:40;13.20;;;7.82;;
30892;SDS011;17595;50.884;4.346;2023-04-15T06:30:07;13.48;;;7.05;;
30892;SDS011;17595;50.884;4.346;2023-04-15T06:32:33;9.63;;;6.65;;
30892;SDS011;17595;50.884;4.346;2023-04-15T06:34:59;12.75;;;6.80;;
30892;SDS011;17595;50.884;4.346;2023-04-15T06:37:24;11.27;;;6.90;;
30892;SDS011;17595;50.884;4.346;2023-04-15T06:39:50;16.60;;;7.78;;
30892;SDS011;17595;50.884;4.346;2023-04-15T06:42:16;12.27;;;6.90;;
30892;SDS011;17595;50.884;4.346;2023-04-15T06:44:42;9.50;;;6.35;;
30892;SDS011;17595;50.884;4.346;2023-04-15T06:47:07;10.93;;;6.40;;
30892;SDS011;17595;50.884;4.346;2023-04-15T06:49:33;14.82;;;6.50;;
30892;SDS011;17595;50.884;4.346;2023-04-15T06:51:59;12.48;;;6.95;;
30892;SDS011;17595;50.884;4.346;2023-04-15T06:54:25;14.32;;;7.35;;
30892;SDS011;17595;50.884;4.346;2023-04-15T06:56:51;10.15;;;6.85;;
30892;SDS011;17595;50.884;4.346;2023-04-15T06:59:17;13.05;;;7.35;;
30892;SDS011;17595;50.884;4.346;2023-04-15T07:01:42;12.20;;;6.93;;
30892;SDS011;17595;50.884;4.346;2023-04-15T07:04:08;11.63;;;6.95;;
30892;SDS011;17595;50.884;4.346;2023-04-15T07:06:35;15.48;;;6.70;;
30892;SDS011;17595;50.884;4.346;2023-04-15T07:09:01;13.73;;;7.47;;
30892;SDS011;17595;50.884;4.346;2023-04-15T07:11:28;13.73;;;6.78;;
30892;SDS011;17595;50.884;4.346;2023-04-15T07:13:53;13.10;;;6.68;;
30892;SDS011;17595;50.884;4.346;2023-04-15T07:16:19;11.98;;;6.82;;
30892;SDS011;17595;50.884;4.346;2023-04-15T07:18:45;10.68;;;6.78;;
30892;SDS011;17595;50.884;4.346;2023-04-15T07:21:10;10.40;;;6.80;;
30892;SDS011;17595;50.884;4.346;2023-04-15T07:23:36;13.95;;;6.93;;
30892;SDS011;17595;50.884;4.346;2023-04-15T07:26:02;10.10;;;7.00;;
30892;SDS011;17595;50.884;4.346;2023-04-15T07:28:28;11.63;;;6.60;;
30892;SDS011;17595;50.884;4.346;2023-04-15T07:30:54;10.02;;;6.82;;
30892;SDS011;17595;50.884;4.346;2023-04-15T07:33:21;13.85;;;6.93;;
30892;SDS011;17595;50.884;4.346;2023-04-15T07:35:47;9.98;;;6.85;;
30892;SDS011;17595;50.884;4.346;2023-04-15T07:38:13;13.63;;;6.93;;
30892;SDS011;17595;50.884;4.346;2023-04-15T07:40:38;12.35;;;7.05;;
30892;SDS011;17595;50.884;4.346;2023-04-15T07:43:04;12.07;;;7.28;;
30892;SDS011;17595;50.884;4.346;2023-04-15T07:45:30;16.20;;;8.35;;
30892;SDS011;17595;50.884;4.346;2023-04-15T07:47:56;14.77;;;8.07;;
30892;SDS011;17595;50.884;4.346;2023-04-15T07:50:22;14.57;;;8.57;;
30892;SDS011;17595;50.884;4.346;2023-04-15T07:52:49;13.95;;;8.50;;
30892;SDS011;17595;50.884;4.346;2023-04-15T07:55:15;12.13;;;8.40;;
30892;SDS011;17595;50.884;4.346;2023-04-15T07:57:43;13.07;;;9.02;;
30892;SDS011;17595;50.884;4.346;2023-04-15T08:00:09;13.82;;;8.77;;
30892;SDS011;17595;50.884;4.346;2023-04-15T08:02:35;14.82;;;8.93;;
30892;SDS011;17595;50.884;4.346;2023-04-15T08:05:01;14.57;;;9.63;;
30892;SDS011;17595;50.884;4.346;2023-04-15T08:07:28;13.25;;;9.15;;
30892;SDS011;17595;50.884;4.346;2023-04-15T08:09:54;17.48;;;9.63;;
30892;SDS011;17595;50.884;4.346;2023-04-15T08:12:20;14.20;;;9.60;;
30892;SDS011;17595;50.884;4.346;2023-04-15T08:14:46;14.93;;;9.88;;
30892;SDS011;17595;50.884;4.346;2023-04-15T08:17:12;14.50;;;10.15;;
30892;SDS011;17595;50.884;4.346;2023-04-15T08:19:37;20.42;;;11.60;;
30892;SDS011;17595;50.884;4.346;2023-04-15T08:22:04;21.10;;;10.32;;
30892;SDS011;17595;50.884;4.346;2023-04-15T08:24:30;15.77;;;10.48;;
30892;SDS011;17595;50.884;4.346;2023-04-15T08:26:55;17.58;;;10.40;;
30892;SDS011;17595;50.884;4.346;2023-04-15T08:29:21;14.25;;;10.23;;
30892;SDS011;17595;50.884;4.346;2023-04-15T08:31:47;14.85;;;10.90;;
30892;SDS011;17595;50.884;4.346;2023-04-15T08:34:13;16.23;;;11.20;;
30892;SDS011;17595;50.884;4.346;2023-04-15T08:36:39;17.20;;;10.73;;
30892;SDS011;17595;50.884;4.346;2023-04-15T08:39:07;19.48;;;11.13;;
30892;SDS011;17595;50.884;4.346;2023-04-15T08:41:39;17.02;;;10.32;;
30892;SDS011;17595;50.884;4.346;2023-04-15T08:44:13;17.63;;;11.02;;
30892;SDS011;17595;50.884;4.346;2023-04-15T08:46:40;16.60;;;11.23;;
30892;SDS011;17595;50.884;4.346;2023-04-15T08:49:08;17.85;;;11.18;;
30892;SDS011;17595;50.884;4.346;2023-04-15T08:51:36;17.75;;;10.60;;
30892;SDS011;17595;50.884;4.346;2023-04-15T08:54:04;16.48;;;10.65;;
30892;SDS011;17595;50.884;4.346;2023-04-15T08:56:30;13.65;;;10.20;;
30892;SDS011;17595;50.884;4.346;2023-04-15T08:58:58;14.60;;;10.57;;
30892;SDS011;17595;50.884;4.346;2023-04-15T09:01:24;17.10;;;9.73;;
30892;SDS011;17595;50.884;4.346;2023-04-15T09:03:50;14.30;;;9.80;;
30892;SDS011;17595;50.884;4.346;2023-04-15T09:06:20;14.85;;;10.75;;
30892;SDS011;17595;50.884;4.346;2023-04-15T09:08:46;15.38;;;9.95;;
30892;SDS011;17595;50.884;4.346;2023-04-15T09:11:13;16.65;;;10.52;;
30892;SDS011;17595;50.884;4.346;2023-04-15T09:13:39;19.08;;;10.65;;
30892;SDS011;17595;50.884;4.346;2023-04-15T09:16:05;11.88;;;9.13;;
30892;SDS011;17595;50.884;4.346;2023-04-15T09:18:32;15.52;;;10.32;;
30892;SDS011;17595;50.884;4.346;2023-04-15T09:21:06;14.93;;;9.82;;
30892;SDS011;17595;50.884;4.346;2023-04-15T09:23:37;15.80;;;7.82;;
30892;SDS011;17595;50.884;4.346;2023-04-15T09:26:04;8.95;;;7.30;;
30892;SDS011;17595;50.884;4.346;2023-04-15T09:28:31;10.88;;;6.93;;
30892;SDS011;17595;50.884;4.346;2023-04-15T09:30:57;10.90;;;6.82;;
30892;SDS011;17595;50.884;4.346;2023-04-15T09:33:24;8.95;;;5.75;;
30892;SDS011;17595;50.884;4.346;2023-04-15T09:36:00;12.88;;;6.25;;
30892;SDS011;17595;50.884;4.346;2023-04-15T09:38:28;10.85;;;5.90;;
30892;SDS011;17595;50.884;4.346;2023-04-15T09:40:54;8.43;;;5.88;;
30892;SDS011;17595;50.884;4.346;2023-04-15T09:43:22;8.93;;;5.88;;
30892;SDS011;17595;50.884;4.346;2023-04-15T09:46:00;9.82;;;5.95;;
30892;SDS011;17595;50.884;4.346;2023-04-15T09:48:26;9.95;;;5.90;;
30892;SDS011;17595;50.884;4.346;2023-04-15T09:50:52;7.95;;;5.63;;
30892;SDS011;17595;50.884;4.346;2023-04-15T09:53:22;7.70;;;5.43;;
30892;SDS011;17595;50.884;4.346;2023-04-15T10:00:51;8.63;;;5.82;;
30892;SDS011;17595;50.884;4.346;2023-04-15T10:03:21;8.15;;;5.60;;
30892;SDS011;17595;50.884;4.346;2023-04-15T10:05:49;11.00;;;6.50;;
30892;SDS011;17595;50.884;4.346;2023-04-15T10:08:16;10.27;;;6.22;;
30892;SDS011;17595;50.884;4.346;2023-04-15T10:10:46;9.52;;;6.90;;
30892;SDS011;17595;50.884;4.346;2023-04-15T10:13:13;12.48;;;7.68;;
30892;SDS011;17595;50.884;4.346;2023-04-15T10:15:43;7.93;;;6.78;;
30892;SDS011;17595;50.884;4.346;2023-04-15T10:18:12;8.77;;;5.97;;
30892;SDS011;17595;50.884;4.346;2023-04-15T10:20:41;8.38;;;6.70;;
30892;SDS011;17595;50.884;4.346;2023-04-15T10:23:09;9.18;;;5.78;;
30892;SDS011;17595;50.884;4.346;2023-04-15T10:25:36;6.57;;;4.75;;
30892;SDS011;17595;50.884;4.346;2023-04-15T10:28:02;6.25;;;4.90;;
30892;SDS011;17595;50.884;4.346;2023-04-15T10:30:30;11.55;;;5.30;;
30892;SDS011;17595;50.884;4.346;2023-04-15T10:32:57;7.32;;;4.90;;
30892;SDS011;17595;50.884;4.346;2023-04-15T10:35:24;6.70;;;4.55;;
30892;SDS011;17595;50.884;4.346;2023-04-15T10:37:50;7.53;;;4.90;;
30892;SDS011;17595;50.884;4.346;2023-04-15T10:40:26;8.10;;;5.00;;
30892;SDS011;17595;50.884;4.346;2023-04-15T10:42:55;4.50;;;3.67;;
30892;SDS011;17595;50.884;4.346;2023-04-15T10:45:26;5.78;;;3.40;;
30892;SDS011;17595;50.884;4.346;2023-04-15T10:48:00;5.78;;;3.40;;
30892;SDS011;17595;50.884;4.346;2023-04-15T10:50:27;5.53;;;3.40;;
30892;SDS011;17595;50.884;4.346;2023-04-15T10:52:55;5.13;;;3.45;;
30892;SDS011;17595;50.884;4.346;2023-04-15T10:55:25;7.40;;;3.22;;
30892;SDS011;17595;50.884;4.346;2023-04-15T10:57:57;5.05;;;2.33;;
30892;SDS011;17595;50.884;4.346;2023-04-15T11:00:25;7.93;;;2.58;;
30892;SDS011;17595;50.884;4.346;2023-04-15T11:02:54;5.47;;;2.67;;
30892;SDS011;17595;50.884;4.346;2023-04-15T11:08:14;5.30;;;3.20;;
30892;SDS011;17595;50.884;4.346;2023-04-15T11:13:16;5.60;;;3.22;;
30892;SDS011;17595;50.884;4.346;2023-04-15T11:15:46;3.25;;;2.92;;
30892;SDS011;17595;50.884;4.346;2023-04-15T11:20:43;4.95;;;3.38;;
30892;SDS011;17595;50.884;4.346;2023-04-15T11:23:16;4.57;;;3.53;;
30892;SDS011;17595;50.884;4.346;2023-04-15T11:25:43;4.50;;;3.70;;
30892;SDS011;17595;50.884;4.346;2023-04-15T11:28:10;5.53;;;3.63;;
30892;SDS011;17595;50.884;4.346;2023-04-15T11:30:37;5.95;;;3.42;;
30892;SDS011;17595;50.884;4.346;2023-04-15T11:33:06;5.25;;;3.70;;
30892;SDS011;17595;50.884;4.346;2023-04-15T11:35:33;4.70;;;2.70;;
30892;SDS011;17595;50.884;4.346;2023-04-15T11:38:17;4.55;;;2.40;;
30892;SDS011;17595;50.884;4.346;2023-04-15T11:40:43;2.65;;;2.00;;
30892;SDS011;17595;50.884;4.346;2023-04-15T11:43:10;3.72;;;2.60;;
30892;SDS011;17595;50.884;4.346;2023-04-15T11:45:46;2.67;;;2.47;;
30892;SDS011;17595;50.884;4.346;2023-04-15T11:48:12;6.70;;;2.88;;
30892;SDS011;17595;50.884;4.346;2023-04-15T11:50:38;3.63;;;2.70;;
30892;SDS011;17595;50.884;4.346;2023-04-15T11:53:05;3.42;;;2.53;;
30892;SDS011;17595;50.884;4.346;2023-04-15T11:55:42;3.75;;;2.35;;
30892;SDS011;17595;50.884;4.346;2023-04-15T11:58:14;2.83;;;2.08;;
30892;SDS011;17595;50.884;4.346;2023-04-15T12:00:48;3.65;;;2.40;;
30892;SDS011;17595;50.884;4.346;2023-04-15T12:11:46;3.20;;;2.90;;
30892;SDS011;17595;50.884;4.346;2023-04-15T12:14:31;4.32;;;2.42;;
30892;SDS011;17595;50.884;4.346;2023-04-15T12:17:00;3.95;;;3.22;;
30892;SDS011;17595;50.884;4.346;2023-04-15T12:19:37;4.15;;;3.13;;
30892;SDS011;17595;50.884;4.346;2023-04-15T12:22:04;2.90;;;2.60;;
30892;SDS011;17595;50.884;4.346;2023-04-15T12:24:33;3.72;;;2.70;;
30892;SDS011;17595;50.884;4.346;2023-04-15T12:27:01;2.97;;;2.38;;
30892;SDS011;17595;50.884;4.346;2023-04-15T12:29:31;6.65;;;2.97;;
30892;SDS011;17595;50.884;4.346;2023-04-15T12:34:34;4.47;;;3.08;;
30892;SDS011;17595;50.884;4.346;2023-04-15T12:37:01;4.38;;;2.97;;
30892;SDS011;17595;50.884;4.346;2023-04-15T12:39:39;6.18;;;2.30;;
30892;SDS011;17595;50.884;4.346;2023-04-15T12:42:06;4.25;;;2.70;;
30892;SDS011;17595;50.884;4.346;2023-04-15T12:44:33;2.60;;;2.40;;
30892;SDS011;17595;50.884;4.346;2023-04-15T12:47:00;2.97;;;2.45;;
30892;SDS011;17595;50.884;4.346;2023-04-15T12:49:26;5.25;;;2.25;;
30892;SDS011;17595;50.884;4.346;2023-04-15T12:51:53;3.45;;;2.00;;
30892;SDS011;17595;50.884;4.346;2023-04-15T12:54:20;4.93;;;2.00;;
30892;SDS011;17595;50.884;4.346;2023-04-15T12:56:47;1.95;;;1.50;;
30892;SDS011;17595;50.884;4.346;2023-04-15T12:59:14;4.55;;;1.65;;
30892;SDS011;17595;50.884;4.346;2023-04-15T13:01:42;3.83;;;2.00;;
30892;SDS011;17595;50.884;4.346;2023-04-15T13:04:08;3.35;;;1.70;;
30892;SDS011;17595;50.884;4.346;2023-04-15T13:06:34;5.05;;;2.25;;
30892;SDS011;17595;50.884;4.346;2023-04-15T13:09:01;4.72;;;2.50;;
30892;SDS011;17595;50.884;4.346;2023-04-15T13:11:27;5.03;;;2.10;;
30892;SDS011;17595;50.884;4.346;2023-04-15T13:13:57;4.43;;;1.85;;
30892;SDS011;17595;50.884;4.346;2023-04-15T13:16:27;5.93;;;2.60;;
30892;SDS011;17595;50.884;4.346;2023-04-15T13:18:53;6.00;;;3.33;;
30892;SDS011;17595;50.884;4.346;2023-04-15T13:21:19;4.05;;;3.15;;
30892;SDS011;17595;50.884;4.346;2023-04-15T13:23:45;5.85;;;2.90;;
30892;SDS011;17595;50.884;4.346;2023-04-15T13:26:11;5.55;;;3.13;;
30892;SDS011;17595;50.884;4.346;2023-04-15T13:28:36;3.67;;;2.72;;
30892;SDS011;17595;50.884;4.346;2023-04-15T13:31:04;4.45;;;2.00;;
30892;SDS011;17595;50.884;4.346;2023-04-15T13:33:30;6.18;;;2.67;;
30892;SDS011;17595;50.884;4.346;2023-04-15T13:35:56;4.68;;;2.08;;
30892;SDS011;17595;50.884;4.346;2023-04-15T13:38:22;4.15;;;2.08;;
30892;SDS011;17595;50.884;4.346;2023-04-15T13:40:49;5.38;;;2.45;;
30892;SDS011;17595;50.884;4.346;2023-04-15T13:43:15;5.43;;;2.30;;
30892;SDS011;17595;50.884;4.346;2023-04-15T13:45:41;5.03;;;2.53;;
30892;SDS011;17595;50.884;4.346;2023-04-15T13:48:07;4.03;;;1.80;;
30892;SDS011;17595;50.884;4.346;2023-04-15T13:50:33;2.67;;;1.90;;
30892;SDS011;17595;50.884;4.346;2023-04-15T13:52:58;4.82;;;1.98;;
30892;SDS011;17595;50.884;4.346;2023-04-15T13:55:24;4.13;;;1.48;;
30892;SDS011;17595;50.884;4.346;2023-04-15T13:57:50;4.82;;;1.90;;
30892;SDS011;17595;50.884;4.346;2023-04-15T14:00:16;4.15;;;1.77;;
30892;SDS011;17595;50.884;4.346;2023-04-15T14:02:41;4.22;;;2.67;;
30892;SDS011;17595;50.884;4.346;2023-04-15T14:05:07;6.05;;;2.40;;
30892;SDS011;17595;50.884;4.346;2023-04-15T14:07:33;4.72;;;2.33;;
30892;SDS011;17595;50.884;4.346;2023-04-15T14:09:59;3.05;;;2.10;;
30892;SDS011;17595;50.884;4.346;2023-04-15T14:12:25;5.60;;;2.60;;
30892;SDS011;17595;50.884;4.346;2023-04-15T14:14:50;4.00;;;2.47;;
30892;SDS011;17595;50.884;4.346;2023-04-15T14:17:16;3.10;;;2.28;;
30892;SDS011;17595;50.884;4.346;2023-04-15T14:19:41;3.80;;;2.30;;
30892;SDS011;17595;50.884;4.346;2023-04-15T14:22:07;4.50;;;2.00;;
30892;SDS011;17595;50.884;4.346;2023-04-15T14:24:33;3.10;;;1.60;;
30892;SDS011;17595;50.884;4.346;2023-04-15T14:26:58;2.92;;;1.50;;
30892;SDS011;17595;50.884;4.346;2023-04-15T14:29:24;2.45;;;1.50;;
30892;SDS011;17595;50.884;4.346;2023-04-15T14:31:51;2.83;;;1.30;;
30892;SDS011;17595;50.884;4.346;2023-04-15T14:34:16;2.15;;;1.10;;
30892;SDS011;17595;50.884;4.346;2023-04-15T14:36:42;4.88;;;1.30;;
30892;SDS011;17595;50.884;4.346;2023-04-15T14:39:10;4.13;;;1.20;;
30892;SDS011;17595;50.884;4.346;2023-04-15T14:41:35;5.55;;;1.38;;
30892;SDS011;17595;50.884;4.346;2023-04-15T14:44:01;3.38;;;1.10;;
30892;SDS011;17595;50.884;4.346;2023-04-15T14:46:27;3.90;;;1.20;;
30892;SDS011;17595;50.884;4.346;2023-04-15T14:48:53;3.33;;;1.50;;
30892;SDS011;17595;50.884;4.346;2023-04-15T14:51:18;5.38;;;1.77;;
30892;SDS011;17595;50.884;4.346;2023-04-15T14:53:44;1.88;;;1.67;;
30892;SDS011;17595;50.884;4.346;2023-04-15T14:56:10;2.08;;;1.67;;
30892;SDS011;17595;50.884;4.346;2023-04-15T14:58:36;2.17;;;1.67;;
30892;SDS011;17595;50.884;4.346;2023-04-15T15:01:02;3.63;;;2.85;;